»·PEaware :: SWA5923 KBXK-KSNA

SWA5923 :: KBXK-KSNA

FLIGHT INFORMATION

Flight Status: Arrived
Operator:
Southwest Airlines
More flights by this operator :: More flights under this callsign
Pilot: Max W. (2591)
Aircraft: BOEING 737-200
(B732)
More flights by this aircraft type
Origin: KBXK Buckeye Mun
United States
Destination: KSNA John Wayne-Orange Co
United States
More flights between these airports :: More routes between these airports
Route: +PSP KAYOH7
File this flight plan on PilotEdge
Remarks: STUDENT PILOT RETAKE ON SOLO DISASTER
Altitude:
(Current/Filed)
28,000ft
Speed:
(Current/Filed)
350kts
Departed: 23-Mar-19 10:32 AM
Arrived: 23-Mar-19 11:30 AM
Distance/Time
Traveled:
259nm/0:57
Distance/Time
To Go:
Arrived

Flight Plot

Page will automatically refresh every two minutes.

Flight plan parsing failed; only flown route is shown


Map Options




Map Legend


Flown Route
Filed Route
Departure Airport
Arrival Airport
Navaid (VOR, NDB)
Fix

Horizontal Profiles

Position Reports

Time Latitude Longitude Heading Altitude Ground
Speed
23-Mar-19 10:30 33.414925 -112.686534 1 997ft 0kts
23-Mar-19 10:31 33.418198 -112.686360 2 1004ft 89kts
23-Mar-19 10:32 33.457901 -112.684938 359 3004ft 187kts
23-Mar-19 10:33 33.498309 -112.723951 272 6488ft 232kts
23-Mar-19 10:34 33.504647 -112.797401 275 9734ft 256kts
23-Mar-19 10:35 33.512399 -112.883999 275 13032ft 263kts
23-Mar-19 10:36 33.520059 -112.971630 275 16025ft 267kts
23-Mar-19 10:37 33.528785 -113.060279 275 18680ft 270kts
23-Mar-19 10:38 33.537958 -113.150226 275 20983ft 274kts
23-Mar-19 10:39 33.547093 -113.241684 275 23032ft 277kts
23-Mar-19 10:40 33.555917 -113.334324 275 24821ft 281kts
23-Mar-19 10:41 33.564412 -113.427927 275 26384ft 285kts
23-Mar-19 10:42 33.572656 -113.523073 275 27776ft 288kts
23-Mar-19 10:43 33.580740 -113.622131 275 28158ft 307kts
23-Mar-19 10:44 33.588872 -113.719332 275 28155ft 295kts
23-Mar-19 10:45 33.596957 -113.815534 275 28144ft 285kts
23-Mar-19 10:46 33.604903 -113.909521 275 28147ft 280kts
23-Mar-19 10:47 33.612747 -114.002923 275 28149ft 283kts
23-Mar-19 10:48 33.620818 -114.097405 275 28147ft 286kts
23-Mar-19 10:49 33.628954 -114.192651 275 28144ft 288kts
23-Mar-19 10:50 33.637306 -114.288744 276 28143ft 289kts
23-Mar-19 10:51 33.645748 -114.385230 276 28141ft 290kts
23-Mar-19 10:52 33.654291 -114.481463 276 28140ft 291kts
23-Mar-19 10:53 33.662857 -114.578416 276 28138ft 291kts
23-Mar-19 10:54 33.671208 -114.672449 275 28154ft 291kts
23-Mar-19 10:55 33.679778 -114.769964 275 28151ft 294kts
23-Mar-19 10:56 33.688737 -114.870723 275 28170ft 323kts
23-Mar-19 10:57 33.697313 -114.978587 273 28164ft 368kts
23-Mar-19 10:58 33.709092 -115.107121 277 28154ft 399kts
23-Mar-19 10:59 33.725222 -115.239829 277 28138ft 397kts
23-Mar-19 11:00 33.741450 -115.368953 277 28118ft 385kts
23-Mar-19 11:01 33.757303 -115.495116 277 28104ft 376kts
23-Mar-19 11:02 33.772749 -115.618904 277 28101ft 371kts
23-Mar-19 11:04 33.786987 -115.738204 277 28116ft 369kts
23-Mar-19 11:05 33.801758 -115.860064 277 28117ft 367kts
23-Mar-19 11:06 33.816464 -115.981534 277 28113ft 366kts
23-Mar-19 11:07 33.830848 -116.100639 277 26123ft 359kts
23-Mar-19 11:08 33.845126 -116.219692 277 23342ft 366kts
23-Mar-19 11:09 33.859316 -116.338932 277 21141ft 358kts
23-Mar-19 11:10 33.873204 -116.456734 277 18999ft 352kts
23-Mar-19 11:11 33.875039 -116.572724 261 16972ft 347kts
23-Mar-19 11:12 33.879249 -116.684702 272 14875ft 343kts
23-Mar-19 11:13 33.878518 -116.794319 250 14045ft 303kts
23-Mar-19 11:14 33.847075 -116.896500 252 12509ft 329kts
23-Mar-19 11:15 33.820053 -117.000908 254 10497ft 300kts
23-Mar-19 11:16 33.798568 -117.091512 255 10066ft 265kts
23-Mar-19 11:17 33.777989 -117.178348 255 9159ft 278kts
23-Mar-19 11:18 33.768554 -117.267861 273 8073ft 256kts
23-Mar-19 11:19 33.770670 -117.342494 273 8075ft 208kts
23-Mar-19 11:20 33.772325 -117.411434 272 8069ft 206kts
23-Mar-19 11:21 33.777105 -117.479393 290 8047ft 207kts
23-Mar-19 11:21 33.796665 -117.535734 291 6412ft 214kts
23-Mar-19 11:23 33.823793 -117.611835 292 5125ft 213kts
23-Mar-19 11:24 33.845099 -117.672141 290 5093ft 194kts
23-Mar-19 11:24 33.858757 -117.724433 258 3975ft 202kts
23-Mar-19 11:25 33.820270 -117.772740 218 3097ft 202kts
23-Mar-19 11:27 33.764824 -117.812230 208 1921ft 187kts
23-Mar-19 11:27 33.729061 -117.834982 208 1160ft 156kts
23-Mar-19 11:28 33.696585 -117.855553 208 441ft 124kts
23-Mar-19 11:29 33.674635 -117.868626 158 65ft 10kts
23-Mar-19 11:30 33.673796 -117.867310 96 65ft 11kts
23-Mar-19 11:31 33.677100 -117.864548 29 65ft 17kts

Navigation Log

Ident Type
Flight plan parsing failed, navigation log unavailable